sensor_id;sensor_type;location;lat;lon;timestamp;pressure;altitude;pressure_sealevel;temperature;humidity
38630;BME280;24384;51.988;4.644;2023-01-29T00:01:44;103160.44;;;3.44;75.31
38630;BME280;24384;51.988;4.644;2023-01-29T00:04:10;103157.00;;;3.45;75.45
38630;BME280;24384;51.988;4.644;2023-01-29T00:06:35;103159.00;;;3.52;75.48
38630;BME280;24384;51.988;4.644;2023-01-29T00:09:00;103149.22;;;3.47;76.15
38630;BME280;24384;51.988;4.644;2023-01-29T00:11:26;103150.81;;;3.42;75.94
38630;BME280;24384;51.988;4.644;2023-01-29T00:13:51;103145.53;;;3.40;75.85
38630;BME280;24384;51.988;4.644;2023-01-29T00:16:17;103149.91;;;3.41;75.98
38630;BME280;24384;51.988;4.644;2023-01-29T00:18:43;103141.94;;;3.36;76.02
38630;BME280;24384;51.988;4.644;2023-01-29T00:21:17;103138.59;;;3.40;75.71
38630;BME280;24384;51.988;4.644;2023-01-29T00:23:43;103133.53;;;3.45;75.88
38630;BME280;24384;51.988;4.644;2023-01-29T00:26:08;103128.84;;;3.35;76.45
38630;BME280;24384;51.988;4.644;2023-01-29T00:28:34;103131.53;;;3.38;76.28
38630;BME280;24384;51.988;4.644;2023-01-29T00:31:10;103141.16;;;3.39;76.05
38630;BME280;24384;51.988;4.644;2023-01-29T00:33:36;103144.28;;;3.29;76.27
38630;BME280;24384;51.988;4.644;2023-01-29T00:36:06;103145.28;;;3.32;75.92
38630;BME280;24384;51.988;4.644;2023-01-29T00:38:32;103144.16;;;3.26;76.26
38630;BME280;24384;51.988;4.644;2023-01-29T00:41:05;103142.31;;;3.21;76.56
38630;BME280;24384;51.988;4.644;2023-01-29T00:43:49;103128.31;;;3.19;76.01
38630;BME280;24384;51.988;4.644;2023-01-29T00:46:33;103120.34;;;3.15;76.66
38630;BME280;24384;51.988;4.644;2023-01-29T00:49:01;103119.56;;;3.17;76.15
38630;BME280;24384;51.988;4.644;2023-01-29T00:51:26;103114.91;;;3.09;76.70
38630;BME280;24384;51.988;4.644;2023-01-29T00:53:53;103115.06;;;3.13;75.97
38630;BME280;24384;51.988;4.644;2023-01-29T00:56:23;103107.88;;;3.06;75.98
38630;BME280;24384;51.988;4.644;2023-01-29T00:58:48;103110.38;;;3.03;76.86
38630;BME280;24384;51.988;4.644;2023-01-29T01:01:13;103115.59;;;3.03;76.62
38630;BME280;24384;51.988;4.644;2023-01-29T01:03:39;103098.88;;;2.98;76.94
38630;BME280;24384;51.988;4.644;2023-01-29T01:06:09;103099.84;;;3.00;77.26
38630;BME280;24384;51.988;4.644;2023-01-29T01:08:35;103098.94;;;2.99;77.60
38630;BME280;24384;51.988;4.644;2023-01-29T01:11:20;103101.59;;;3.01;76.86
38630;BME280;24384;51.988;4.644;2023-01-29T01:13:46;103099.00;;;3.01;76.90
38630;BME280;24384;51.988;4.644;2023-01-29T01:16:14;103092.19;;;3.04;77.48
38630;BME280;24384;51.988;4.644;2023-01-29T01:18:41;103097.47;;;3.06;77.63
38630;BME280;24384;51.988;4.644;2023-01-29T01:21:06;103098.28;;;3.05;77.63
38630;BME280;24384;51.988;4.644;2023-01-29T01:23:31;103100.88;;;3.05;77.03
38630;BME280;24384;51.988;4.644;2023-01-29T01:25:57;103103.09;;;3.18;76.92
38630;BME280;24384;51.988;4.644;2023-01-29T01:28:23;103105.81;;;3.21;77.07
38630;BME280;24384;51.988;4.644;2023-01-29T01:30:48;103112.78;;;3.22;76.73
38630;BME280;24384;51.988;4.644;2023-01-29T01:33:13;103112.50;;;3.15;76.54
38630;BME280;24384;51.988;4.644;2023-01-29T01:35:39;103126.50;;;3.17;76.49
38630;BME280;24384;51.988;4.644;2023-01-29T01:38:05;103126.44;;;3.15;76.07
38630;BME280;24384;51.988;4.644;2023-01-29T01:40:30;103119.34;;;3.11;76.17
38630;BME280;24384;51.988;4.644;2023-01-29T01:42:57;103115.88;;;3.11;77.18
38630;BME280;24384;51.988;4.644;2023-01-29T01:45:33;103121.78;;;3.07;77.15
38630;BME280;24384;51.988;4.644;2023-01-29T01:48:06;103131.34;;;3.06;76.86
38630;BME280;24384;51.988;4.644;2023-01-29T01:53:28;103132.22;;;3.07;77.59
38630;BME280;24384;51.988;4.644;2023-01-29T01:56:01;103121.09;;;3.11;77.48
38630;BME280;24384;51.988;4.644;2023-01-29T01:58:33;103118.22;;;3.03;77.27
38630;BME280;24384;51.988;4.644;2023-01-29T02:01:03;103117.19;;;2.99;77.47
38630;BME280;24384;51.988;4.644;2023-01-29T02:03:30;103116.47;;;3.03;77.52
38630;BME280;24384;51.988;4.644;2023-01-29T02:06:16;103116.94;;;3.17;76.83
38630;BME280;24384;51.988;4.644;2023-01-29T02:09:22;103113.38;;;3.14;76.56
38630;BME280;24384;51.988;4.644;2023-01-29T02:12:13;103114.03;;;3.08;77.01
38630;BME280;24384;51.988;4.644;2023-01-29T02:14:40;103107.78;;;3.03;77.33
38630;BME280;24384;51.988;4.644;2023-01-29T02:17:09;103095.50;;;3.00;77.89
38630;BME280;24384;51.988;4.644;2023-01-29T02:19:41;103107.69;;;3.00;77.45
38630;BME280;24384;51.988;4.644;2023-01-29T02:25:14;103101.50;;;2.98;77.38
38630;BME280;24384;51.988;4.644;2023-01-29T02:30:58;103112.19;;;3.05;76.40
38630;BME280;24384;51.988;4.644;2023-01-29T02:33:34;103101.56;;;2.99;77.38
38630;BME280;24384;51.988;4.644;2023-01-29T02:39:32;103105.69;;;2.93;77.83
38630;BME280;24384;51.988;4.644;2023-01-29T02:41:48;103113.50;;;2.93;77.12
38630;BME280;24384;51.988;4.644;2023-01-29T02:44:26;103099.69;;;2.95;76.99
38630;BME280;24384;51.988;4.644;2023-01-29T02:47:01;103098.84;;;2.96;77.51
38630;BME280;24384;51.988;4.644;2023-01-29T02:49:35;103111.94;;;2.98;77.78
38630;BME280;24384;51.988;4.644;2023-01-29T02:52:14;103108.41;;;2.96;77.23
38630;BME280;24384;51.988;4.644;2023-01-29T02:54:55;103101.22;;;2.90;78.04
38630;BME280;24384;51.988;4.644;2023-01-29T02:57:29;103107.69;;;3.00;77.24
38630;BME280;24384;51.988;4.644;2023-01-29T03:00:10;103105.63;;;2.91;78.10
38630;BME280;24384;51.988;4.644;2023-01-29T03:03:06;103104.25;;;3.02;77.27
38630;BME280;24384;51.988;4.644;2023-01-29T03:08:49;103104.75;;;2.91;77.73
38630;BME280;24384;51.988;4.644;2023-01-29T03:11:18;103110.69;;;2.86;77.53
38630;BME280;24384;51.988;4.644;2023-01-29T03:14:07;103094.28;;;2.89;76.91
38630;BME280;24384;51.988;4.644;2023-01-29T03:16:49;103097.53;;;2.83;77.72
38630;BME280;24384;51.988;4.644;2023-01-29T03:19:39;103093.34;;;2.89;78.13
38630;BME280;24384;51.988;4.644;2023-01-29T03:22:06;103088.16;;;2.89;78.25
38630;BME280;24384;51.988;4.644;2023-01-29T03:24:47;103098.53;;;2.87;77.76
38630;BME280;24384;51.988;4.644;2023-01-29T03:27:49;103092.53;;;2.90;78.03
38630;BME280;24384;51.988;4.644;2023-01-29T03:30:39;103094.88;;;2.82;79.26
38630;BME280;24384;51.988;4.644;2023-01-29T03:33:25;103088.72;;;2.80;79.16
38630;BME280;24384;51.988;4.644;2023-01-29T03:36:01;103087.66;;;2.75;79.27
38630;BME280;24384;51.988;4.644;2023-01-29T03:38:30;103078.03;;;2.72;79.27
38630;BME280;24384;51.988;4.644;2023-01-29T03:48:49;103080.47;;;2.67;79.80
38630;BME280;24384;51.988;4.644;2023-01-29T03:51:23;103080.53;;;2.69;79.35
38630;BME280;24384;51.988;4.644;2023-01-29T03:54:38;103073.59;;;2.69;80.02
38630;BME280;24384;51.988;4.644;2023-01-29T03:59:32;103068.28;;;2.66;80.14
38630;BME280;24384;51.988;4.644;2023-01-29T04:02:06;103066.44;;;2.64;79.54
38630;BME280;24384;51.988;4.644;2023-01-29T04:04:35;103060.28;;;2.62;80.49
38630;BME280;24384;51.988;4.644;2023-01-29T04:07:22;103046.44;;;2.63;80.44
38630;BME280;24384;51.988;4.644;2023-01-29T04:09:59;103052.38;;;2.59;80.01
38630;BME280;24384;51.988;4.644;2023-01-29T04:12:29;103050.66;;;2.59;79.53
38630;BME280;24384;51.988;4.644;2023-01-29T04:14:58;103049.78;;;2.59;80.08
38630;BME280;24384;51.988;4.644;2023-01-29T04:17:34;103051.34;;;2.54;79.92
38630;BME280;24384;51.988;4.644;2023-01-29T04:20:02;103057.63;;;2.60;79.58
38630;BME280;24384;51.988;4.644;2023-01-29T04:22:33;103043.69;;;2.58;80.28
38630;BME280;24384;51.988;4.644;2023-01-29T04:25:04;103047.88;;;2.55;79.85
38630;BME280;24384;51.988;4.644;2023-01-29T04:27:44;103044.56;;;2.59;79.51
38630;BME280;24384;51.988;4.644;2023-01-29T04:33:10;103036.63;;;2.56;79.79
38630;BME280;24384;51.988;4.644;2023-01-29T04:35:58;103035.81;;;2.57;80.56
38630;BME280;24384;51.988;4.644;2023-01-29T04:41:18;103030.50;;;2.54;80.24
38630;BME280;24384;51.988;4.644;2023-01-29T04:43:57;103027.94;;;2.55;79.99
38630;BME280;24384;51.988;4.644;2023-01-29T04:46:48;103015.19;;;2.63;79.13
38630;BME280;24384;51.988;4.644;2023-01-29T04:49:22;103014.13;;;2.58;79.74
38630;BME280;24384;51.988;4.644;2023-01-29T04:54:59;103013.19;;;2.56;79.05
38630;BME280;24384;51.988;4.644;2023-01-29T04:57:26;103007.91;;;2.54;79.91
38630;BME280;24384;51.988;4.644;2023-01-29T05:00:09;103004.59;;;2.58;79.85
38630;BME280;24384;51.988;4.644;2023-01-29T05:02:39;103005.47;;;2.59;78.90
38630;BME280;24384;51.988;4.644;2023-01-29T05:05:06;103002.75;;;2.56;79.93
38630;BME280;24384;51.988;4.644;2023-01-29T05:07:34;102996.84;;;2.60;79.32
38630;BME280;24384;51.988;4.644;2023-01-29T05:10:03;103001.09;;;2.58;78.80
38630;BME280;24384;51.988;4.644;2023-01-29T05:12:30;103001.09;;;2.58;79.14
38630;BME280;24384;51.988;4.644;2023-01-29T05:14:59;102991.56;;;2.58;78.90
38630;BME280;24384;51.988;4.644;2023-01-29T05:17:25;102993.16;;;2.55;79.40
38630;BME280;24384;51.988;4.644;2023-01-29T05:19:50;102987.97;;;2.55;78.88
38630;BME280;24384;51.988;4.644;2023-01-29T05:22:18;102988.28;;;2.64;78.52
38630;BME280;24384;51.988;4.644;2023-01-29T05:24:47;102994.34;;;2.63;77.72
38630;BME280;24384;51.988;4.644;2023-01-29T05:27:33;102993.38;;;2.61;77.96
38630;BME280;24384;51.988;4.644;2023-01-29T05:30:18;102993.38;;;2.61;77.89
38630;BME280;24384;51.988;4.644;2023-01-29T05:32:43;102989.91;;;2.60;78.20
38630;BME280;24384;51.988;4.644;2023-01-29T05:35:08;102994.34;;;2.63;77.95
38630;BME280;24384;51.988;4.644;2023-01-29T05:37:33;102977.84;;;2.64;77.82
38630;BME280;24384;51.988;4.644;2023-01-29T05:39:59;102980.47;;;2.64;77.78
38630;BME280;24384;51.988;4.644;2023-01-29T05:42:24;102974.53;;;2.68;77.82
38630;BME280;24384;51.988;4.644;2023-01-29T05:44:49;102991.84;;;2.66;78.00
38630;BME280;24384;51.988;4.644;2023-01-29T05:47:18;102989.22;;;2.66;78.85
38630;BME280;24384;51.988;4.644;2023-01-29T05:49:44;102986.53;;;2.63;79.25
38630;BME280;24384;51.988;4.644;2023-01-29T05:52:09;102987.34;;;2.62;78.91
38630;BME280;24384;51.988;4.644;2023-01-29T05:54:34;102980.34;;;2.61;78.85
38630;BME280;24384;51.988;4.644;2023-01-29T05:56:59;102979.63;;;2.65;78.64
38630;BME280;24384;51.988;4.644;2023-01-29T05:59:25;102985.47;;;2.58;78.82
38630;BME280;24384;51.988;4.644;2023-01-29T06:01:50;102987.25;;;2.59;79.00
38630;BME280;24384;51.988;4.644;2023-01-29T06:04:15;102980.41;;;2.62;78.31
38630;BME280;24384;51.988;4.644;2023-01-29T06:06:40;102983.81;;;2.60;78.68
38630;BME280;24384;51.988;4.644;2023-01-29T06:09:06;102980.19;;;2.56;78.77
38630;BME280;24384;51.988;4.644;2023-01-29T06:11:31;102984.53;;;2.56;79.21
38630;BME280;24384;51.988;4.644;2023-01-29T06:13:56;102975.84;;;2.55;78.68
38630;BME280;24384;51.988;4.644;2023-01-29T06:16:21;102979.31;;;2.56;78.74
38630;BME280;24384;51.988;4.644;2023-01-29T06:18:47;102974.94;;;2.55;79.51
38630;BME280;24384;51.988;4.644;2023-01-29T06:21:12;102961.19;;;2.59;78.54
38630;BME280;24384;51.988;4.644;2023-01-29T06:23:38;102967.97;;;2.54;78.96
38630;BME280;24384;51.988;4.644;2023-01-29T06:26:10;102964.50;;;2.55;78.57
38630;BME280;24384;51.988;4.644;2023-01-29T06:28:36;102964.47;;;2.53;79.11
38630;BME280;24384;51.988;4.644;2023-01-29T06:31:02;102960.94;;;2.51;79.11
38630;BME280;24384;51.988;4.644;2023-01-29T06:33:28;102952.25;;;2.50;79.21
38630;BME280;24384;51.988;4.644;2023-01-29T06:35:58;102946.28;;;2.55;79.38
38630;BME280;24384;51.988;4.644;2023-01-29T06:38:24;102941.81;;;2.50;78.94
38630;BME280;24384;51.988;4.644;2023-01-29T06:40:50;102949.78;;;2.55;79.41
38630;BME280;24384;51.988;4.644;2023-01-29T06:43:15;102943.66;;;2.55;79.45
38630;BME280;24384;51.988;4.644;2023-01-29T06:45:48;102936.59;;;2.50;79.87
38630;BME280;24384;51.988;4.644;2023-01-29T06:48:15;102947.91;;;2.51;79.98
38630;BME280;24384;51.988;4.644;2023-01-29T06:50:41;102964.31;;;2.48;79.65
38630;BME280;24384;51.988;4.644;2023-01-29T06:53:06;102956.50;;;2.48;80.06
38630;BME280;24384;51.988;4.644;2023-01-29T06:55:31;102948.72;;;2.50;80.23
38630;BME280;24384;51.988;4.644;2023-01-29T06:57:56;102946.97;;;2.49;79.51
38630;BME280;24384;51.988;4.644;2023-01-29T07:00:22;102951.28;;;2.48;79.05
38630;BME280;24384;51.988;4.644;2023-01-29T07:02:50;102944.41;;;2.50;79.12
38630;BME280;24384;51.988;4.644;2023-01-29T07:05:15;102943.56;;;2.51;79.75
38630;BME280;24384;51.988;4.644;2023-01-29T07:07:41;102940.97;;;2.51;79.67
38630;BME280;24384;51.988;4.644;2023-01-29T07:10:07;102941.81;;;2.50;79.80
38630;BME280;24384;51.988;4.644;2023-01-29T07:12:32;102951.28;;;2.48;80.63
38630;BME280;24384;51.988;4.644;2023-01-29T07:14:57;102952.25;;;2.50;80.24
38630;BME280;24384;51.988;4.644;2023-01-29T07:17:23;102958.38;;;2.53;79.83
38630;BME280;24384;51.988;4.644;2023-01-29T07:19:48;102951.38;;;2.51;79.04
38630;BME280;24384;51.988;4.644;2023-01-29T07:22:13;102940.09;;;2.51;79.96
38630;BME280;24384;51.988;4.644;2023-01-29T07:24:40;102941.81;;;2.50;79.83
38630;BME280;24384;51.988;4.644;2023-01-29T07:27:05;102945.19;;;2.48;78.96
38630;BME280;24384;51.988;4.644;2023-01-29T07:29:31;102945.34;;;2.53;79.31
38630;BME280;24384;51.988;4.644;2023-01-29T07:31:56;102944.41;;;2.50;79.78
38630;BME280;24384;51.988;4.644;2023-01-29T07:34:21;102940.91;;;2.50;79.06
38630;BME280;24384;51.988;4.644;2023-01-29T07:36:46;102944.47;;;2.52;79.52
38630;BME280;24384;51.988;4.644;2023-01-29T07:39:12;102940.03;;;2.49;79.51
38630;BME280;24384;51.988;4.644;2023-01-29T07:41:37;102947.84;;;2.49;80.01
38630;BME280;24384;51.988;4.644;2023-01-29T07:44:02;102949.72;;;2.54;79.70
38630;BME280;24384;51.988;4.644;2023-01-29T07:46:27;102956.66;;;2.53;80.05
38630;BME280;24384;51.988;4.644;2023-01-29T07:48:53;102940.09;;;2.51;79.72
38630;BME280;24384;51.988;4.644;2023-01-29T07:51:18;102941.16;;;2.58;79.10
38630;BME280;24384;51.988;4.644;2023-01-29T07:53:45;102931.59;;;2.57;79.51
38630;BME280;24384;51.988;4.644;2023-01-29T07:56:11;102929.00;;;2.57;79.28
38630;BME280;24384;51.988;4.644;2023-01-29T07:58:36;102936.81;;;2.57;79.33
38630;BME280;24384;51.988;4.644;2023-01-29T08:01:08;102935.97;;;2.58;79.03
38630;BME280;24384;51.988;4.644;2023-01-29T08:03:33;102934.22;;;2.57;79.56
38630;BME280;24384;51.988;4.644;2023-01-29T08:05:58;102926.28;;;2.54;79.61
38630;BME280;24384;51.988;4.644;2023-01-29T08:08:24;102934.09;;;2.54;79.63
38630;BME280;24384;51.988;4.644;2023-01-29T08:10:49;102928.94;;;2.55;80.27
38630;BME280;24384;51.988;4.644;2023-01-29T08:13:15;102928.09;;;2.56;79.99
38630;BME280;24384;51.988;4.644;2023-01-29T08:15:43;102927.22;;;2.56;79.86
38630;BME280;24384;51.988;4.644;2023-01-29T08:18:09;102926.41;;;2.57;79.21
38630;BME280;24384;51.988;4.644;2023-01-29T08:20:35;102916.84;;;2.57;79.93
38630;BME280;24384;51.988;4.644;2023-01-29T08:23:05;102917.63;;;2.55;80.51
38630;BME280;24384;51.988;4.644;2023-01-29T08:25:32;102909.75;;;2.53;79.57
38630;BME280;24384;51.988;4.644;2023-01-29T08:27:58;102908.88;;;2.53;80.12
38630;BME280;24384;51.988;4.644;2023-01-29T08:30:25;102914.09;;;2.53;80.14
38630;BME280;24384;51.988;4.644;2023-01-29T08:32:51;102908.94;;;2.54;79.74
38630;BME280;24384;51.988;4.644;2023-01-29T08:35:16;102908.88;;;2.53;80.53
38630;BME280;24384;51.988;4.644;2023-01-29T08:37:41;102901.00;;;2.51;79.43
38630;BME280;24384;51.988;4.644;2023-01-29T08:40:07;102906.31;;;2.54;79.34
38630;BME280;24384;51.988;4.644;2023-01-29T08:42:35;102908.16;;;2.57;80.29
38630;BME280;24384;51.988;4.644;2023-01-29T08:45:00;102893.50;;;2.60;79.91
38630;BME280;24384;51.988;4.644;2023-01-29T08:47:25;102902.09;;;2.58;79.58
38630;BME280;24384;51.988;4.644;2023-01-29T08:49:50;102897.75;;;2.57;79.51
38630;BME280;24384;51.988;4.644;2023-01-29T08:52:18;102890.03;;;2.60;79.88
38630;BME280;24384;51.988;4.644;2023-01-29T08:54:43;102891.00;;;2.63;79.97
38630;BME280;24384;51.988;4.644;2023-01-29T08:57:08;102884.00;;;2.62;79.63
38630;BME280;24384;51.988;4.644;2023-01-29T08:59:34;102879.91;;;2.69;80.04
38630;BME280;24384;51.988;4.644;2023-01-29T09:01:59;102882.50;;;2.69;79.71
38630;BME280;24384;51.988;4.644;2023-01-29T09:04:24;102885.00;;;2.66;79.87
38630;BME280;24384;51.988;4.644;2023-01-29T09:06:49;102878.16;;;2.69;79.64
38630;BME280;24384;51.988;4.644;2023-01-29T09:09:15;102880.00;;;2.72;79.28
38630;BME280;24384;51.988;4.644;2023-01-29T09:11:40;102880.09;;;2.75;79.42
38630;BME280;24384;51.988;4.644;2023-01-29T09:14:06;102882.75;;;2.77;79.58
38630;BME280;24384;51.988;4.644;2023-01-29T09:16:31;102883.53;;;2.74;79.50
38630;BME280;24384;51.988;4.644;2023-01-29T09:18:56;102889.03;;;2.83;79.29
38630;BME280;24384;51.988;4.644;2023-01-29T09:21:22;102889.97;;;2.85;78.83
38630;BME280;24384;51.988;4.644;2023-01-29T09:23:47;102886.53;;;2.86;78.60
38630;BME280;24384;51.988;4.644;2023-01-29T09:26:12;102885.78;;;2.91;78.80
38630;BME280;24384;51.988;4.644;2023-01-29T09:28:38;102878.16;;;2.97;78.40
38630;BME280;24384;51.988;4.644;2023-01-29T09:31:03;102890.25;;;2.95;79.09
38630;BME280;24384;51.988;4.644;2023-01-29T09:33:28;102877.22;;;2.95;78.03
38630;BME280;24384;51.988;4.644;2023-01-29T09:35:55;102878.22;;;2.98;78.91
38630;BME280;24384;51.988;4.644;2023-01-29T09:38:20;102887.63;;;2.95;79.25
38630;BME280;24384;51.988;4.644;2023-01-29T09:40:54;102874.66;;;2.96;79.04
38630;BME280;24384;51.988;4.644;2023-01-29T09:43:29;102878.22;;;2.98;78.91
38630;BME280;24384;51.988;4.644;2023-01-29T09:46:00;102882.66;;;3.02;79.48
38630;BME280;24384;51.988;4.644;2023-01-29T09:48:30;102876.72;;;3.07;79.66
38630;BME280;24384;51.988;4.644;2023-01-29T09:51:02;102881.09;;;3.08;80.32
38630;BME280;24384;51.988;4.644;2023-01-29T09:53:37;102883.63;;;3.04;79.08
38630;BME280;24384;51.988;4.644;2023-01-29T09:56:17;102871.50;;;3.07;79.25
38630;BME280;24384;51.988;4.644;2023-01-29T09:58:43;102871.56;;;3.08;78.78
38630;BME280;24384;51.988;4.644;2023-01-29T10:12:40;102860.94;;;3.02;78.86
38630;BME280;24384;51.988;4.644;2023-01-29T10:18:11;102853.22;;;3.05;78.90
38630;BME280;24384;51.988;4.644;2023-01-29T10:20:56;102851.44;;;3.04;78.89
38630;BME280;24384;51.988;4.644;2023-01-29T10:23:42;102845.34;;;3.03;78.50
38630;BME280;24384;51.988;4.644;2023-01-29T10:26:12;102848.97;;;3.09;78.69
38630;BME280;24384;51.988;4.644;2023-01-29T10:28:47;102850.69;;;3.08;80.16
38630;BME280;24384;51.988;4.644;2023-01-29T10:31:28;102848.19;;;3.11;79.44
38630;BME280;24384;51.988;4.644;2023-01-29T10:34:00;102845.66;;;3.14;78.47
38630;BME280;24384;51.988;4.644;2023-01-29T10:38:57;102841.22;;;3.12;79.58
38630;BME280;24384;51.988;4.644;2023-01-29T10:53:22;102812.88;;;3.22;79.44
38630;BME280;24384;51.988;4.644;2023-01-29T10:58:53;102813.78;;;3.23;79.04
38630;BME280;24384;51.988;4.644;2023-01-29T11:01:19;102804.94;;;3.19;79.62
38630;BME280;24384;51.988;4.644;2023-01-29T11:03:45;102801.56;;;3.22;79.45
38630;BME280;24384;51.988;4.644;2023-01-29T11:06:26;102793.72;;;3.22;78.97
38630;BME280;24384;51.988;4.644;2023-01-29T11:09:08;102792.94;;;3.25;78.80
38630;BME280;24384;51.988;4.644;2023-01-29T11:11:45;102799.00;;;3.23;79.77
38630;BME280;24384;51.988;4.644;2023-01-29T11:14:20;102806.06;;;3.28;78.76
38630;BME280;24384;51.988;4.644;2023-01-29T11:16:47;102793.16;;;3.32;79.47
38630;BME280;24384;51.988;4.644;2023-01-29T11:19:13;102788.00;;;3.34;79.49
38630;BME280;24384;51.988;4.644;2023-01-29T11:22:15;102783.66;;;3.34;79.28
38630;BME280;24384;51.988;4.644;2023-01-29T11:24:41;102787.22;;;3.38;79.85
38630;BME280;24384;51.988;4.644;2023-01-29T11:27:24;102783.81;;;3.40;79.08
38630;BME280;24384;51.988;4.644;2023-01-29T11:29:52;102778.56;;;3.39;79.03
38630;BME280;24384;51.988;4.644;2023-01-29T11:35:23;102777.91;;;3.46;79.39
38630;BME280;24384;51.988;4.644;2023-01-29T11:37:48;102770.16;;;3.49;78.47
38630;BME280;24384;51.988;4.644;2023-01-29T11:42:42;102763.16;;;3.48;79.01
38630;BME280;24384;51.988;4.644;2023-01-29T11:45:27;102759.69;;;3.48;79.62
38630;BME280;24384;51.988;4.644;2023-01-29T11:47:58;102758.84;;;3.50;79.60
38630;BME280;24384;51.988;4.644;2023-01-29T11:50:26;102759.75;;;3.51;78.85
38630;BME280;24384;51.988;4.644;2023-01-29T11:52:52;102749.41;;;3.54;78.84
38630;BME280;24384;51.988;4.644;2023-01-29T11:55:21;102749.38;;;3.52;78.40
38630;BME280;24384;51.988;4.644;2023-01-29T11:57:50;102741.63;;;3.55;78.70
38630;BME280;24384;51.988;4.644;2023-01-29T12:00:18;102734.72;;;3.57;78.37
38630;BME280;24384;51.988;4.644;2023-01-29T12:02:48;102740.00;;;3.61;78.80
38630;BME280;24384;51.988;4.644;2023-01-29T12:05:20;102732.25;;;3.64;77.84
38630;BME280;24384;51.988;4.644;2023-01-29T12:07:49;102724.44;;;3.64;78.65
38630;BME280;24384;51.988;4.644;2023-01-29T12:10:36;102726.25;;;3.66;78.27
38630;BME280;24384;51.988;4.644;2023-01-29T12:15:40;102709.81;;;3.70;78.13
38630;BME280;24384;51.988;4.644;2023-01-29T12:18:26;102702.94;;;3.74;77.73
38630;BME280;24384;51.988;4.644;2023-01-29T12:20:59;102698.75;;;3.81;77.84
38630;BME280;24384;51.988;4.644;2023-01-29T12:23:51;102700.50;;;3.80;77.99
38630;BME280;24384;51.988;4.644;2023-01-29T12:26:33;102689.31;;;3.86;77.98
38630;BME280;24384;51.988;4.644;2023-01-29T12:29:29;102679.75;;;3.86;78.35
38630;BME280;24384;51.988;4.644;2023-01-29T12:37:28;102656.50;;;3.96;77.49
38630;BME280;24384;51.988;4.644;2023-01-29T12:39:57;102647.91;;;4.01;77.62
38630;BME280;24384;51.988;4.644;2023-01-29T12:42:23;102639.34;;;4.07;77.11
38630;BME280;24384;51.988;4.644;2023-01-29T12:44:58;102644.75;;;4.16;77.63
38630;BME280;24384;51.988;4.644;2023-01-29T12:49:56;102624.16;;;4.30;76.51
38630;BME280;24384;51.988;4.644;2023-01-29T12:55:17;102609.09;;;4.18;76.63
38630;BME280;24384;51.988;4.644;2023-01-29T12:57:56;102612.00;;;4.32;75.67
38630;BME280;24384;51.988;4.644;2023-01-29T13:00:28;102614.47;;;4.24;76.70
38630;BME280;24384;51.988;4.644;2023-01-29T13:08:13;102596.00;;;4.17;76.29
38630;BME280;24384;51.988;4.644;2023-01-29T13:10:42;102576.78;;;4.13;76.40
38630;BME280;24384;51.988;4.644;2023-01-29T13:13:33;102575.91;;;4.11;76.13
38630;BME280;24384;51.988;4.644;2023-01-29T13:16:03;102554.97;;;4.09;76.45
38630;BME280;24384;51.988;4.644;2023-01-29T13:18:46;102560.16;;;4.08;77.26
38630;BME280;24384;51.988;4.644;2023-01-29T13:21:20;102547.06;;;4.06;76.31
38630;BME280;24384;51.988;4.644;2023-01-29T13:23:51;102552.28;;;4.06;77.21
38630;BME280;24384;51.988;4.644;2023-01-29T13:26:19;102553.09;;;4.04;76.62
38630;BME280;24384;51.988;4.644;2023-01-29T13:28:45;102544.47;;;4.06;77.10
38630;BME280;24384;51.988;4.644;2023-01-29T13:31:26;102539.34;;;4.11;76.94
38630;BME280;24384;51.988;4.644;2023-01-29T13:36:28;102525.53;;;4.18;76.53
38630;BME280;24384;51.988;4.644;2023-01-29T13:39:04;102525.69;;;4.26;77.59
38630;BME280;24384;51.988;4.644;2023-01-29T13:41:38;102524.72;;;4.21;76.45
38630;BME280;24384;51.988;4.644;2023-01-29T13:44:15;102516.00;;;4.19;77.21
38630;BME280;24384;51.988;4.644;2023-01-29T13:46:51;102507.41;;;4.26;77.25
38630;BME280;24384;51.988;4.644;2023-01-29T13:49:34;102511.69;;;4.22;77.44
38630;BME280;24384;51.988;4.644;2023-01-29T13:54:39;102510.91;;;4.26;77.40
38630;BME280;24384;51.988;4.644;2023-01-29T13:57:04;102507.47;;;4.29;76.34
38630;BME280;24384;51.988;4.644;2023-01-29T13:59:53;102507.44;;;4.27;77.90
38630;BME280;24384;51.988;4.644;2023-01-29T14:02:24;102498.03;;;4.36;77.21
38630;BME280;24384;51.988;4.644;2023-01-29T14:04:50;102495.28;;;4.28;77.89
38630;BME280;24384;51.988;4.644;2023-01-29T14:07:42;102496.19;;;4.30;77.00
38630;BME280;24384;51.988;4.644;2023-01-29T14:12:41;102497.94;;;4.31;77.21
38630;BME280;24384;51.988;4.644;2023-01-29T14:15:25;102490.00;;;4.25;78.05
38630;BME280;24384;51.988;4.644;2023-01-29T14:17:56;102477.78;;;4.24;77.43
38630;BME280;24384;51.988;4.644;2023-01-29T14:20:33;102477.00;;;4.28;77.40
38630;BME280;24384;51.988;4.644;2023-01-29T14:23:01;102473.53;;;4.30;78.31
38630;BME280;24384;51.988;4.644;2023-01-29T14:25:33;102476.09;;;4.27;78.07
38630;BME280;24384;51.988;4.644;2023-01-29T14:28:02;102476.91;;;4.23;78.34
38630;BME280;24384;51.988;4.644;2023-01-29T14:30:31;102473.44;;;4.26;78.06
38630;BME280;24384;51.988;4.644;2023-01-29T14:32:57;102465.59;;;4.24;77.92
38630;BME280;24384;51.988;4.644;2023-01-29T14:35:27;102471.75;;;4.26;78.64
38630;BME280;24384;51.988;4.644;2023-01-29T14:38:01;102460.41;;;4.27;78.08
38630;BME280;24384;51.988;4.644;2023-01-29T14:40:29;102470.72;;;4.20;78.59
38630;BME280;24384;51.988;4.644;2023-01-29T14:45:31;102470.66;;;4.17;79.41
38630;BME280;24384;51.988;4.644;2023-01-29T14:53:05;102473.13;;;4.09;79.38
38630;BME280;24384;51.988;4.644;2023-01-29T14:55:40;102461.72;;;4.04;79.92
38630;BME280;24384;51.988;4.644;2023-01-29T14:58:16;102458.28;;;4.06;79.63
38630;BME280;24384;51.988;4.644;2023-01-29T15:00:45;102459.03;;;4.01;80.88
38630;BME280;24384;51.988;4.644;2023-01-29T15:03:42;102444.28;;;4.03;80.71
38630;BME280;24384;51.988;4.644;2023-01-29T15:06:15;102445.09;;;3.99;80.28